createdAt,value
2019-02-15T00:02:17.275Z,0.84
2019-02-15T00:04:48.166Z,0.81
2019-02-15T00:07:19.174Z,0.83
2019-02-15T00:09:49.963Z,0.85
2019-02-15T00:12:21.226Z,0.79
2019-02-15T00:14:52.126Z,0.76
2019-02-15T00:17:51.032Z,0.67
2019-02-15T00:20:29.952Z,0.71
2019-02-15T00:23:00.763Z,0.64
2019-02-15T00:25:31.721Z,0.60
2019-02-15T00:28:02.632Z,0.61
2019-02-15T00:30:33.519Z,0.68
2019-02-15T00:33:04.496Z,0.64
2019-02-15T00:35:35.278Z,0.57
2019-02-15T00:38:06.167Z,0.58
2019-02-15T00:40:36.976Z,0.54
2019-02-15T00:43:07.857Z,0.42
2019-02-15T00:45:56.977Z,0.42
2019-02-15T00:48:28.247Z,0.48
2019-02-15T00:51:20.665Z,0.55
2019-02-15T00:54:01.103Z,0.58
2019-02-15T00:56:36.976Z,0.61
2019-02-15T00:59:26.839Z,0.58
2019-02-15T01:02:10.782Z,0.61
2019-02-15T01:05:07.425Z,0.61
2019-02-15T01:07:56.183Z,0.67
2019-02-15T01:10:49.136Z,0.64
2019-02-15T01:13:30.752Z,0.62
2019-02-15T01:15:55.156Z,0.52
2019-02-15T01:18:26.038Z,0.45
2019-02-15T01:20:57.030Z,0.39
2019-02-15T01:23:27.837Z,0.27
2019-02-15T01:26:07.601Z,0.30
2019-02-15T01:28:57.450Z,0.26
2019-02-15T01:31:40.778Z,0.31
2019-02-15T01:34:30.594Z,0.22
2019-02-15T01:37:15.095Z,0.19
2019-02-15T01:40:07.766Z,0.16
2019-02-15T01:42:47.407Z,0.11
2019-02-15T01:45:23.158Z,0.11
2019-02-15T01:47:54.150Z,0.13
2019-02-15T01:50:25.139Z,0.15
2019-02-15T01:52:56.140Z,0.19
2019-02-15T01:55:26.928Z,0.25
2019-02-15T01:57:57.815Z,0.25
2019-02-15T02:00:32.699Z,0.30
2019-02-15T02:03:03.666Z,0.33
2019-02-15T02:05:34.554Z,0.33
2019-02-15T02:08:06.709Z,0.30
2019-02-15T02:10:37.466Z,0.26
2019-02-15T02:13:08.501Z,0.22
2019-02-15T02:15:39.451Z,0.20
2019-02-15T02:18:10.609Z,0.17
2019-02-15T02:20:41.522Z,0.15
2019-02-15T02:23:12.665Z,0.12
2019-02-15T02:25:43.510Z,0.14
2019-02-15T02:28:14.407Z,0.10
2019-02-15T02:30:45.287Z,0.03
2019-02-15T02:33:16.265Z,-0.04
2019-02-15T02:35:47.252Z,-0.02
2019-02-15T02:38:18.340Z,-0.03
2019-02-15T02:40:49.134Z,-0.07
2019-02-15T02:43:20.020Z,-0.17
2019-02-15T02:45:50.807Z,-0.15
2019-02-15T02:48:21.751Z,-0.09
2019-02-15T02:50:52.708Z,-0.17
2019-02-15T02:53:23.987Z,-0.18
2019-02-15T02:55:54.768Z,-0.35
2019-02-15T02:58:25.783Z,-0.19
2019-02-15T03:00:56.764Z,-0.09
2019-02-15T03:03:27.662Z,-0.20
2019-02-15T03:05:58.618Z,-0.18
2019-02-15T03:08:29.512Z,-0.18
2019-02-15T03:11:00.300Z,-0.27
2019-02-15T03:13:31.496Z,-0.35
2019-02-15T03:16:02.274Z,-0.42
2019-02-15T03:18:33.258Z,-0.39
2019-02-15T03:21:04.147Z,-0.31
2019-02-15T03:23:35.360Z,-0.29
2019-02-15T03:26:06.248Z,-0.28
2019-02-15T03:28:37.136Z,-0.25
2019-02-15T03:31:07.901Z,-0.27
2019-02-15T03:33:38.799Z,-0.28
2019-02-15T03:36:13.029Z,-0.33
2019-02-15T03:38:48.711Z,-0.40
2019-02-15T03:41:28.400Z,-0.39
2019-02-15T03:43:59.451Z,-0.52
2019-02-15T03:46:30.232Z,-0.56
2019-02-15T03:49:01.336Z,-0.51
2019-02-15T03:51:32.319Z,-0.45
2019-02-15T03:54:03.407Z,-0.50
2019-02-15T03:56:34.313Z,-0.58
2019-02-15T03:59:05.185Z,-0.66
2019-02-15T04:01:35.980Z,-0.71
2019-02-15T04:04:07.040Z,-0.68
2019-02-15T04:06:37.969Z,-0.58
2019-02-15T04:09:08.955Z,-0.56
2019-02-15T04:11:39.826Z,-0.63
2019-02-15T04:14:11.109Z,-0.63
2019-02-15T04:16:42.020Z,-0.60
2019-02-15T04:19:12.919Z,-0.50
2019-02-15T04:21:43.787Z,-0.47
2019-02-15T04:24:14.681Z,-0.45
2019-02-15T04:26:45.451Z,-0.47
2019-02-15T04:29:16.646Z,-0.46
2019-02-15T04:31:48.473Z,-0.43
2019-02-15T04:34:19.376Z,-0.51
2019-02-15T04:36:51.148Z,-0.60
2019-02-15T04:39:22.070Z,-0.68
2019-02-15T04:41:53.057Z,-0.71
2019-02-15T04:44:24.055Z,-0.68
2019-02-15T04:46:55.014Z,-0.75
2019-02-15T04:49:25.893Z,-0.70
2019-02-15T04:51:56.792Z,-0.58
2019-02-15T04:54:27.681Z,-0.61
2019-02-15T04:56:58.473Z,-0.60
2019-02-15T04:59:29.372Z,-0.55
2019-02-15T05:02:00.333Z,-0.55
2019-02-15T05:04:31.303Z,-0.61
2019-02-15T05:07:04.102Z,-0.73
2019-02-15T05:09:35.743Z,-0.72
2019-02-15T05:12:06.583Z,-0.71
2019-02-15T05:14:37.344Z,-0.75
2019-02-15T05:17:08.132Z,-0.73
2019-02-15T05:19:39.030Z,-0.71
2019-02-15T05:22:09.910Z,-0.74
2019-02-15T05:24:40.780Z,-0.78
2019-02-15T05:27:12.740Z,-0.81
2019-02-15T05:29:43.770Z,-0.79
2019-02-15T05:32:14.563Z,-0.79
2019-02-15T05:34:45.490Z,-0.87
2019-02-15T05:37:16.459Z,-0.88
2019-02-15T05:39:47.439Z,-0.93
2019-02-15T05:42:18.233Z,-0.93
2019-02-15T05:44:49.115Z,-0.88
2019-02-15T05:47:19.894Z,-1.02
2019-02-15T05:49:50.634Z,-1.08
2019-02-15T05:52:21.504Z,-1.09
2019-02-15T05:54:52.304Z,-1.04
2019-02-15T05:57:23.208Z,-0.99
2019-02-15T05:59:53.984Z,-0.97
2019-02-15T06:02:25.012Z,-0.93
2019-02-15T06:04:55.885Z,-0.94
2019-02-15T06:07:26.785Z,-0.99
2019-02-15T06:09:57.735Z,-1.03
2019-02-15T06:12:28.576Z,-1.04
2019-02-15T06:14:59.372Z,-1.08
2019-02-15T06:17:30.372Z,-1.09
2019-02-15T06:20:01.332Z,-1.04
2019-02-15T06:22:32.218Z,-1.04
2019-02-15T06:25:03.011Z,-1.03
2019-02-15T06:27:33.787Z,-1.04
2019-02-15T06:30:04.973Z,-1.06
2019-02-15T06:32:35.871Z,-1.10
2019-02-15T06:35:06.865Z,-1.05
2019-02-15T06:37:37.761Z,-1.06
2019-02-15T06:40:08.749Z,-1.07
2019-02-15T06:42:39.521Z,-1.04
2019-02-15T06:45:10.510Z,-1.09
2019-02-15T06:47:41.419Z,-1.07
2019-02-15T06:50:12.303Z,-1.07
2019-02-15T06:52:43.281Z,-1.09
2019-02-15T06:55:14.562Z,-1.11
2019-02-15T06:57:45.470Z,-1.11
2019-02-15T07:00:34.219Z,-1.13
2019-02-15T07:03:21.462Z,-1.16
2019-02-15T07:05:52.396Z,-1.17
2019-02-15T07:08:23.221Z,-1.11
2019-02-15T07:10:54.193Z,-1.10
2019-02-15T07:13:25.084Z,-1.11
2019-02-15T07:15:56.075Z,-1.09
2019-02-15T07:18:26.965Z,-1.05
2019-02-15T07:20:58.255Z,-1.00
2019-02-15T07:23:29.060Z,-0.99
2019-02-15T07:26:00.018Z,-0.92
2019-02-15T07:28:30.824Z,-0.94
2019-02-15T07:31:01.764Z,-0.92
2019-02-15T07:33:32.614Z,-0.85
2019-02-15T07:36:03.707Z,-0.79
2019-02-15T07:38:34.477Z,-0.73
2019-02-15T07:41:06.090Z,-0.75
2019-02-15T07:43:37.092Z,-0.74
2019-02-15T07:46:08.049Z,-0.67
2019-02-15T07:48:38.960Z,-0.60
2019-02-15T07:51:10.166Z,-0.54
2019-02-15T07:53:41.042Z,-0.50
2019-02-15T07:56:12.041Z,-0.48
2019-02-15T07:58:42.923Z,-0.43
2019-02-15T08:01:13.916Z,-0.38
2019-02-15T08:03:44.801Z,-0.33
2019-02-15T08:06:16.984Z,-0.30
2019-02-15T08:08:47.906Z,-0.31
2019-02-15T08:11:19.496Z,-0.33
2019-02-15T08:13:50.288Z,-0.35
2019-02-15T08:16:21.353Z,-0.26
2019-02-15T08:18:52.170Z,-0.14
2019-02-15T08:21:24.476Z,0.03
2019-02-15T08:23:55.277Z,0.16
2019-02-15T08:26:26.242Z,0.30
2019-02-15T08:28:57.055Z,0.42
2019-02-15T08:31:28.398Z,0.54
2019-02-15T08:33:59.231Z,0.63
2019-02-15T08:36:30.414Z,0.70
2019-02-15T08:39:01.297Z,0.77
2019-02-15T08:41:34.395Z,0.87
2019-02-15T08:44:05.436Z,0.99
2019-02-15T08:46:36.338Z,1.08
2019-02-15T08:49:07.126Z,1.19
2019-02-15T08:51:37.882Z,1.27
2019-02-15T08:54:08.895Z,1.34
2019-02-15T08:56:39.867Z,1.38
2019-02-15T08:59:10.653Z,1.48
2019-02-15T09:01:41.651Z,1.58
2019-02-15T09:04:12.447Z,1.67
2019-02-15T09:06:43.416Z,1.69
2019-02-15T09:09:14.323Z,1.80
2019-02-15T09:11:45.192Z,1.90
2019-02-15T09:14:15.984Z,2.03
2019-02-15T09:16:47.179Z,2.15
2019-02-15T09:19:18.056Z,2.27
2019-02-15T09:21:48.944Z,2.42
2019-02-15T09:24:19.734Z,2.48
2019-02-15T09:26:50.829Z,2.61
2019-02-15T09:29:21.717Z,2.68
2019-02-15T09:31:52.595Z,2.79
2019-02-15T09:34:23.415Z,2.86
2019-02-15T09:36:54.726Z,2.96
2019-02-15T09:39:25.582Z,3.11
2019-02-15T09:41:56.657Z,3.17
2019-02-15T09:44:27.524Z,3.37
2019-02-15T09:46:58.519Z,3.37
2019-02-15T09:49:29.340Z,3.47
2019-02-15T09:52:00.227Z,3.52
2019-02-15T09:54:31.116Z,3.83
2019-02-15T09:57:02.003Z,3.99
2019-02-15T09:59:34.108Z,4.06
2019-02-15T10:02:05.098Z,4.31
2019-02-15T10:04:35.882Z,4.51
2019-02-15T10:07:06.841Z,4.51
2019-02-15T10:09:37.780Z,4.63
2019-02-15T10:12:08.663Z,4.65
2019-02-15T10:14:39.339Z,4.84
2019-02-15T10:17:10.254Z,5.03
2019-02-15T10:19:41.207Z,5.10
2019-02-15T10:22:12.256Z,5.25
2019-02-15T10:24:43.198Z,5.78
2019-02-15T10:27:14.188Z,5.54
2019-02-15T10:29:44.967Z,5.64
2019-02-15T10:32:15.945Z,5.65
2019-02-15T10:34:46.826Z,5.73
2019-02-15T10:37:18.011Z,5.73
2019-02-15T10:39:49.046Z,6.02
2019-02-15T10:42:20.020Z,6.02
2019-02-15T10:44:50.792Z,6.27
2019-02-15T10:47:24.931Z,6.26
2019-02-15T10:49:54.330Z,6.26
2019-02-15T10:52:25.199Z,6.40
2019-02-15T10:54:57.207Z,6.44
2019-02-15T10:57:28.200Z,6.56
2019-02-15T10:59:58.983Z,6.60
2019-02-15T11:02:29.875Z,6.56
2019-02-15T11:05:00.573Z,6.91
2019-02-15T11:07:31.489Z,6.94
2019-02-15T11:10:02.244Z,7.03
2019-02-15T11:12:33.204Z,7.08
2019-02-15T11:15:04.100Z,7.22
2019-02-15T11:17:35.168Z,7.23
2019-02-15T11:20:06.503Z,7.34
2019-02-15T11:22:37.508Z,7.45
2019-02-15T11:25:09.505Z,7.61
2019-02-15T11:27:40.739Z,7.60
2019-02-15T11:30:13.135Z,7.57
2019-02-15T11:32:44.136Z,7.76
2019-02-15T11:35:15.400Z,7.84
2019-02-15T11:37:46.400Z,7.95
2019-02-15T11:40:17.303Z,8.04
2019-02-15T11:42:48.293Z,7.99
2019-02-15T11:45:19.258Z,8.18
2019-02-15T11:47:50.166Z,8.14
2019-02-15T11:50:21.033Z,8.25
2019-02-15T11:52:51.821Z,8.37
2019-02-15T11:55:22.720Z,8.39
2019-02-15T11:57:53.634Z,8.42
2019-02-15T12:00:29.184Z,8.49
2019-02-15T12:03:00.201Z,8.61
2019-02-15T12:05:31.180Z,8.77
2019-02-15T12:08:02.177Z,8.73
2019-02-15T12:10:33.153Z,8.81
2019-02-15T12:13:04.240Z,8.79
2019-02-15T12:15:35.048Z,8.91
2019-02-15T12:18:06.872Z,9.06
2019-02-15T12:20:37.924Z,9.14
2019-02-15T12:23:08.826Z,9.15
2019-02-15T12:25:39.709Z,9.23
2019-02-15T12:28:10.704Z,9.23
2019-02-15T12:30:41.482Z,9.38
2019-02-15T12:33:12.491Z,9.30
2019-02-15T12:35:43.436Z,9.43
2019-02-15T12:38:14.366Z,9.48
2019-02-15T12:40:45.139Z,9.49
2019-02-15T12:43:16.125Z,9.53
2019-02-15T12:45:48.031Z,9.55
2019-02-15T12:48:18.998Z,9.75
2019-02-15T12:50:50.841Z,9.66
2019-02-15T12:53:22.004Z,9.70
2019-02-15T12:55:52.911Z,9.80
2019-02-15T12:58:23.922Z,9.81
2019-02-15T13:00:54.718Z,10.00
2019-02-15T13:03:26.120Z,9.90
2019-02-15T13:05:56.877Z,9.76
2019-02-15T13:08:28.259Z,9.69
2019-02-15T13:10:59.110Z,9.90
2019-02-15T13:13:30.059Z,9.92
2019-02-15T13:16:00.837Z,9.97
2019-02-15T13:18:31.752Z,10.14
2019-02-15T13:21:03.746Z,10.13
2019-02-15T13:23:34.940Z,10.10
2019-02-15T13:26:08.465Z,10.16
2019-02-15T13:28:38.164Z,10.11
2019-02-15T13:31:08.934Z,10.18
2019-02-15T13:33:39.848Z,10.38
2019-02-15T13:36:10.800Z,10.38
2019-02-15T13:38:41.896Z,10.38
2019-02-15T13:41:12.789Z,10.42
2019-02-15T13:43:43.779Z,10.53
2019-02-15T13:46:14.589Z,10.55
2019-02-15T13:48:45.476Z,10.60
2019-02-15T13:51:16.453Z,10.47
2019-02-15T13:53:47.790Z,10.69
2019-02-15T13:56:18.742Z,10.80
2019-02-15T13:58:49.741Z,10.76
2019-02-15T14:01:20.608Z,10.85
2019-02-15T14:03:51.477Z,11.03
2019-02-15T14:06:22.383Z,10.88
2019-02-15T14:08:53.463Z,10.88
2019-02-15T14:11:24.271Z,10.93
2019-02-15T14:13:55.155Z,11.10
2019-02-15T14:16:25.940Z,10.85
2019-02-15T14:18:56.932Z,10.79
2019-02-15T14:21:27.797Z,10.69
2019-02-15T14:23:58.704Z,10.83
2019-02-15T14:26:29.472Z,11.03
2019-02-15T14:29:00.393Z,11.07
2019-02-15T14:31:31.369Z,11.02
2019-02-15T14:34:02.271Z,10.81
2019-02-15T14:36:32.938Z,10.72
2019-02-15T14:39:06.469Z,10.78
2019-02-15T14:41:37.571Z,10.63
2019-02-15T14:44:08.469Z,10.42
2019-02-15T14:46:39.253Z,10.33
2019-02-15T14:49:10.137Z,10.25
2019-02-15T14:51:41.460Z,10.29
2019-02-15T14:54:12.326Z,10.25
2019-02-15T14:56:43.295Z,10.18
2019-02-15T14:59:14.195Z,10.26
2019-02-15T15:01:45.773Z,10.46
2019-02-15T15:04:16.681Z,10.57
2019-02-15T15:06:47.563Z,10.30
2019-02-15T15:09:18.507Z,10.05
2019-02-15T15:11:49.368Z,9.83
2019-02-15T15:14:20.349Z,9.54
2019-02-15T15:16:51.131Z,9.45
2019-02-15T15:19:22.138Z,9.35
2019-02-15T15:21:53.006Z,9.30
2019-02-15T15:24:23.804Z,9.30
2019-02-15T15:26:54.579Z,9.25
2019-02-15T15:29:25.476Z,9.21
2019-02-15T15:31:56.340Z,9.14
2019-02-15T15:34:27.223Z,9.07
2019-02-15T15:36:58.028Z,8.98
2019-02-15T15:39:28.914Z,8.92
2019-02-15T15:41:59.799Z,8.83
2019-02-15T15:44:31.387Z,8.76
2019-02-15T15:47:02.291Z,8.64
2019-02-15T15:49:33.654Z,8.53
2019-02-15T15:52:04.470Z,8.45
2019-02-15T15:54:35.643Z,8.35
2019-02-15T15:57:06.663Z,8.28
2019-02-15T15:59:37.633Z,8.22
2019-02-15T16:02:08.542Z,8.13
2019-02-15T16:04:39.432Z,8.06
2019-02-15T16:07:10.409Z,7.98
2019-02-15T16:09:41.294Z,7.98
2019-02-15T16:12:12.203Z,7.95
2019-02-15T16:14:43.589Z,7.90
2019-02-15T16:17:14.363Z,7.86
2019-02-15T16:19:49.450Z,7.78
2019-02-15T16:22:18.000Z,7.74
2019-02-15T16:24:48.984Z,7.69
2019-02-15T16:27:19.766Z,7.67
2019-02-15T16:29:50.761Z,7.63
2019-02-15T16:32:21.730Z,7.55
2019-02-15T16:34:52.619Z,7.54
2019-02-15T16:37:23.411Z,7.46
2019-02-15T16:39:54.298Z,7.40
2019-02-15T16:42:25.185Z,7.34
2019-02-15T16:44:56.971Z,7.29
2019-02-15T16:47:27.687Z,7.22
2019-02-15T16:49:58.577Z,7.19
2019-02-15T16:52:29.578Z,7.19
2019-02-15T16:55:00.830Z,7.17
2019-02-15T16:57:31.838Z,7.20
2019-02-15T17:00:02.840Z,7.16
2019-02-15T17:02:34.322Z,7.09
2019-02-15T17:05:05.396Z,7.08
2019-02-15T17:07:36.343Z,7.04
2019-02-15T17:10:07.824Z,6.99
2019-02-15T17:12:38.816Z,6.95
2019-02-15T17:15:10.320Z,6.82
2019-02-15T17:17:41.293Z,6.77
2019-02-15T17:20:12.400Z,6.77
2019-02-15T17:22:48.803Z,6.71
2019-02-15T17:25:19.781Z,6.69
2019-02-15T17:27:50.591Z,6.63
2019-02-15T17:30:21.477Z,6.61
2019-02-15T17:32:52.250Z,6.59
2019-02-15T17:35:23.158Z,6.44
2019-02-15T17:37:54.130Z,6.42
2019-02-15T17:40:25.652Z,6.37
2019-02-15T17:42:58.443Z,6.33
2019-02-15T17:45:29.348Z,6.23
2019-02-15T17:48:00.234Z,6.15
2019-02-15T17:50:31.229Z,6.04
2019-02-15T17:53:01.804Z,5.94
2019-02-15T17:55:32.807Z,5.89
2019-02-15T17:58:03.802Z,5.84
2019-02-15T18:00:35.853Z,5.77
2019-02-15T18:03:06.804Z,5.77
2019-02-15T18:05:37.880Z,5.78
2019-02-15T18:08:08.680Z,5.77
2019-02-15T18:10:39.694Z,5.72
2019-02-15T18:13:10.560Z,5.67
2019-02-15T18:15:41.365Z,5.61
2019-02-15T18:18:12.122Z,5.53
2019-02-15T18:20:43.006Z,5.41
2019-02-15T18:23:13.897Z,5.29
2019-02-15T18:25:44.781Z,5.22
2019-02-15T18:28:15.561Z,5.24
2019-02-15T18:30:46.667Z,5.25
2019-02-15T18:33:17.458Z,5.22
2019-02-15T18:35:48.532Z,5.17
2019-02-15T18:38:19.217Z,5.13
2019-02-15T18:40:50.341Z,5.05
2019-02-15T18:43:21.201Z,4.97
2019-02-15T18:45:52.185Z,4.93
2019-02-15T18:48:23.022Z,4.94
2019-02-15T18:50:53.898Z,4.92
2019-02-15T18:53:24.648Z,4.86
2019-02-15T18:55:55.624Z,4.83
2019-02-15T18:58:26.535Z,4.76
2019-02-15T19:00:57.534Z,4.69
2019-02-15T19:03:28.412Z,4.62
2019-02-15T19:06:00.228Z,4.46
2019-02-15T19:08:31.107Z,4.41
2019-02-15T19:11:02.013Z,4.41
2019-02-15T19:13:32.938Z,4.37
2019-02-15T19:16:04.165Z,4.36
2019-02-15T19:18:35.241Z,4.31
2019-02-15T19:21:06.301Z,4.22
2019-02-15T19:23:37.129Z,4.20
2019-02-15T19:26:08.600Z,4.18
2019-02-15T19:28:39.520Z,4.15
2019-02-15T19:31:10.337Z,4.09
2019-02-15T19:33:41.191Z,4.11
2019-02-15T19:36:12.214Z,4.07
2019-02-15T19:38:43.087Z,4.01
2019-02-15T19:41:14.055Z,3.99
2019-02-15T19:43:44.967Z,3.94
2019-02-15T19:46:16.035Z,3.84
2019-02-15T19:48:46.923Z,3.79
2019-02-15T19:51:17.915Z,3.74
2019-02-15T19:53:48.707Z,3.71
2019-02-15T19:56:19.696Z,3.66
2019-02-15T19:58:50.703Z,3.60
2019-02-15T20:01:21.677Z,3.55
2019-02-15T20:03:52.474Z,3.55
2019-02-15T20:06:23.669Z,3.44
2019-02-15T20:08:54.462Z,3.30
2019-02-15T20:11:25.343Z,3.27
2019-02-15T20:13:56.216Z,3.17
2019-02-15T20:16:27.345Z,3.16
2019-02-15T20:18:58.291Z,3.18
2019-02-15T20:21:29.220Z,3.19
2019-02-15T20:23:59.985Z,3.17
2019-02-15T20:26:32.050Z,3.04
2019-02-15T20:29:02.970Z,3.04
2019-02-15T20:31:34.257Z,3.00
2019-02-15T20:34:05.172Z,2.96
2019-02-15T20:36:36.058Z,2.92
2019-02-15T20:39:07.131Z,2.93
2019-02-15T20:41:38.655Z,2.94
2019-02-15T20:44:12.129Z,2.90
2019-02-15T20:46:43.965Z,2.79
2019-02-15T20:49:19.154Z,2.76
2019-02-15T20:51:49.863Z,2.74
2019-02-15T20:54:20.674Z,2.67
2019-02-15T20:56:51.563Z,2.68
2019-02-15T20:59:22.444Z,2.64
2019-02-15T21:01:53.343Z,2.61
2019-02-15T21:04:24.212Z,2.56
2019-02-15T21:06:55.095Z,2.51
2019-02-15T21:09:25.869Z,2.50
2019-02-15T21:11:56.785Z,2.45
2019-02-15T21:14:27.567Z,2.42
2019-02-15T21:16:58.827Z,2.37
2019-02-15T21:19:29.734Z,2.31
2019-02-15T21:22:00.716Z,2.28
2019-02-15T21:24:31.602Z,2.26
2019-02-15T21:27:02.494Z,2.22
2019-02-15T21:29:33.277Z,2.15
2019-02-15T21:32:04.176Z,1.95
2019-02-15T21:34:34.946Z,1.97
2019-02-15T21:37:05.858Z,1.99
2019-02-15T21:39:36.635Z,2.00
2019-02-15T21:42:07.530Z,1.99
2019-02-15T21:44:38.312Z,2.00
2019-02-15T21:47:09.474Z,1.94
2019-02-15T21:49:40.277Z,1.93
2019-02-15T21:52:11.407Z,1.93
2019-02-15T21:54:42.276Z,1.98
2019-02-15T21:57:13.263Z,1.96
2019-02-15T21:59:44.233Z,1.95
2019-02-15T22:02:15.282Z,1.83
2019-02-15T22:04:46.133Z,1.77
2019-02-15T22:07:17.194Z,1.79
2019-02-15T22:09:48.096Z,1.81
2019-02-15T22:12:18.972Z,1.76
2019-02-15T22:14:49.769Z,1.71
2019-02-15T22:17:20.670Z,1.63
2019-02-15T22:19:51.541Z,1.60
2019-02-15T22:22:22.430Z,1.55
2019-02-15T22:24:53.234Z,1.54
2019-02-15T22:27:24.121Z,1.56
2019-02-15T22:29:54.885Z,1.52
2019-02-15T22:32:25.860Z,1.52
2019-02-15T22:34:56.761Z,1.47
2019-02-15T22:37:27.653Z,1.42
2019-02-15T22:39:58.573Z,1.43
2019-02-15T22:42:29.345Z,1.43
2019-02-15T22:45:00.307Z,1.39
2019-02-15T22:47:31.401Z,1.39
2019-02-15T22:50:02.201Z,1.36
2019-02-15T22:52:33.163Z,1.30
2019-02-15T22:55:04.068Z,1.28
2019-02-15T22:57:35.056Z,1.30
2019-02-15T23:00:12.992Z,1.27
2019-02-15T23:02:43.075Z,1.25
2019-02-15T23:05:15.006Z,1.19
2019-02-15T23:07:46.146Z,1.18
2019-02-15T23:10:17.066Z,1.17
2019-02-15T23:12:48.061Z,1.17
2019-02-15T23:15:18.946Z,1.16
2019-02-15T23:17:50.560Z,1.11
2019-02-15T23:20:21.441Z,1.07
2019-02-15T23:22:52.384Z,1.05
2019-02-15T23:25:25.006Z,1.05
2019-02-15T23:27:56.351Z,1.08
2019-02-15T23:30:27.144Z,1.07
2019-02-15T23:32:58.262Z,0.96
2019-02-15T23:35:29.015Z,0.93
2019-02-15T23:38:00.220Z,0.97
2019-02-15T23:40:31.121Z,0.96
2019-02-15T23:43:02.303Z,0.97
2019-02-15T23:45:34.203Z,0.94
2019-02-15T23:48:05.321Z,1.00
2019-02-15T23:50:37.127Z,1.02
2019-02-15T23:53:09.133Z,0.93
2019-02-15T23:55:39.924Z,0.80
2019-02-15T23:58:10.826Z,0.79
